sensor_id;sensor_type;location;lat;lon;timestamp;temperature;humidity
1702;DHT22;848;48.354;10.064;2022-09-16T00:01:48;13.10;99.90
1702;DHT22;848;48.354;10.064;2022-09-16T00:04:17;13.00;99.90
1702;DHT22;848;48.354;10.064;2022-09-16T00:06:45;13.00;99.90
1702;DHT22;848;48.354;10.064;2022-09-16T00:09:11;12.90;99.90
1702;DHT22;848;48.354;10.064;2022-09-16T00:11:40;12.90;99.90
1702;DHT22;848;48.354;10.064;2022-09-16T00:14:07;12.80;99.90
1702;DHT22;848;48.354;10.064;2022-09-16T00:16:33;12.80;99.90
1702;DHT22;848;48.354;10.064;2022-09-16T00:19:00;12.70;99.90
1702;DHT22;848;48.354;10.064;2022-09-16T00:21:28;12.70;99.90
1702;DHT22;848;48.354;10.064;2022-09-16T00:23:57;12.70;99.90
1702;DHT22;848;48.354;10.064;2022-09-16T00:26:24;12.70;99.90
1702;DHT22;848;48.354;10.064;2022-09-16T00:28:53;12.80;99.90
1702;DHT22;848;48.354;10.064;2022-09-16T00:31:20;12.80;99.90
1702;DHT22;848;48.354;10.064;2022-09-16T00:33:47;12.90;99.90
1702;DHT22;848;48.354;10.064;2022-09-16T00:36:15;12.90;99.90
1702;DHT22;848;48.354;10.064;2022-09-16T00:38:42;12.90;99.90
1702;DHT22;848;48.354;10.064;2022-09-16T00:41:14;13.00;99.90
1702;DHT22;848;48.354;10.064;2022-09-16T00:43:55;13.00;99.90
1702;DHT22;848;48.354;10.064;2022-09-16T00:46:26;13.10;99.90
1702;DHT22;848;48.354;10.064;2022-09-16T00:48:56;13.10;99.90
1702;DHT22;848;48.354;10.064;2022-09-16T00:51:23;13.10;99.90
1702;DHT22;848;48.354;10.064;2022-09-16T00:53:54;13.10;99.90
1702;DHT22;848;48.354;10.064;2022-09-16T00:56:25;13.20;99.90
1702;DHT22;848;48.354;10.064;2022-09-16T00:58:59;13.20;99.90
1702;DHT22;848;48.354;10.064;2022-09-16T01:01:28;13.10;99.90
1702;DHT22;848;48.354;10.064;2022-09-16T01:03:58;13.10;99.90
1702;DHT22;848;48.354;10.064;2022-09-16T01:06:26;13.00;99.90
1702;DHT22;848;48.354;10.064;2022-09-16T01:08:55;13.10;99.90
1702;DHT22;848;48.354;10.064;2022-09-16T01:11:22;13.10;99.90
1702;DHT22;848;48.354;10.064;2022-09-16T01:13:50;13.20;99.90
1702;DHT22;848;48.354;10.064;2022-09-16T01:16:22;13.20;99.90
1702;DHT22;848;48.354;10.064;2022-09-16T01:18:57;13.30;99.90
1702;DHT22;848;48.354;10.064;2022-09-16T01:21:39;13.30;99.90
1702;DHT22;848;48.354;10.064;2022-09-16T01:27:31;13.40;99.90
1702;DHT22;848;48.354;10.064;2022-09-16T01:30:17;13.40;99.90
1702;DHT22;848;48.354;10.064;2022-09-16T01:32:57;13.40;99.90
1702;DHT22;848;48.354;10.064;2022-09-16T01:35:34;13.40;99.90
1702;DHT22;848;48.354;10.064;2022-09-16T01:38:13;13.40;99.90
1702;DHT22;848;48.354;10.064;2022-09-16T01:40:48;13.40;99.90
1702;DHT22;848;48.354;10.064;2022-09-16T01:43:21;13.40;99.90
1702;DHT22;848;48.354;10.064;2022-09-16T01:45:54;13.40;99.90
1702;DHT22;848;48.354;10.064;2022-09-16T01:48:28;13.40;99.90
1702;DHT22;848;48.354;10.064;2022-09-16T01:51:00;13.30;99.90
1702;DHT22;848;48.354;10.064;2022-09-16T01:53:33;13.30;99.90
1702;DHT22;848;48.354;10.064;2022-09-16T01:56:05;13.30;99.90
1702;DHT22;848;48.354;10.064;2022-09-16T01:58:44;13.30;99.90
1702;DHT22;848;48.354;10.064;2022-09-16T02:01:18;13.30;99.90
1702;DHT22;848;48.354;10.064;2022-09-16T02:03:53;13.30;99.90
1702;DHT22;848;48.354;10.064;2022-09-16T02:06:23;13.30;99.90
1702;DHT22;848;48.354;10.064;2022-09-16T02:08:54;13.30;99.90
1702;DHT22;848;48.354;10.064;2022-09-16T02:11:22;13.30;99.90
1702;DHT22;848;48.354;10.064;2022-09-16T02:13:54;13.30;99.90
1702;DHT22;848;48.354;10.064;2022-09-16T02:16:28;13.30;99.90
1702;DHT22;848;48.354;10.064;2022-09-16T02:19:05;13.30;99.90
1702;DHT22;848;48.354;10.064;2022-09-16T02:21:33;13.30;99.90
1702;DHT22;848;48.354;10.064;2022-09-16T02:24:09;13.30;99.90
1702;DHT22;848;48.354;10.064;2022-09-16T02:26:42;13.30;99.90
1702;DHT22;848;48.354;10.064;2022-09-16T02:29:13;13.30;99.90
1702;DHT22;848;48.354;10.064;2022-09-16T02:31:43;13.40;99.90
1702;DHT22;848;48.354;10.064;2022-09-16T02:34:14;13.40;99.90
1702;DHT22;848;48.354;10.064;2022-09-16T02:36:45;13.40;99.90
1702;DHT22;848;48.354;10.064;2022-09-16T02:39:16;13.40;99.90
1702;DHT22;848;48.354;10.064;2022-09-16T02:41:48;13.40;99.90
1702;DHT22;848;48.354;10.064;2022-09-16T02:44:15;13.40;99.90
1702;DHT22;848;48.354;10.064;2022-09-16T02:46:52;13.40;99.90
1702;DHT22;848;48.354;10.064;2022-09-16T02:49:26;13.40;99.90
1702;DHT22;848;48.354;10.064;2022-09-16T02:51:58;13.40;99.90
1702;DHT22;848;48.354;10.064;2022-09-16T02:54:33;13.30;99.90
1702;DHT22;848;48.354;10.064;2022-09-16T02:57:02;13.30;99.90
1702;DHT22;848;48.354;10.064;2022-09-16T02:59:30;13.30;99.90
1702;DHT22;848;48.354;10.064;2022-09-16T03:01:58;13.20;99.90
1702;DHT22;848;48.354;10.064;2022-09-16T03:04:27;13.20;99.90
1702;DHT22;848;48.354;10.064;2022-09-16T03:06:55;13.20;99.90
1702;DHT22;848;48.354;10.064;2022-09-16T03:09:23;13.10;99.90
1702;DHT22;848;48.354;10.064;2022-09-16T03:12:15;13.10;99.90
1702;DHT22;848;48.354;10.064;2022-09-16T03:15:08;13.10;99.90
1702;DHT22;848;48.354;10.064;2022-09-16T03:17:50;13.10;99.90
1702;DHT22;848;48.354;10.064;2022-09-16T03:20:28;13.00;99.90
1702;DHT22;848;48.354;10.064;2022-09-16T03:23:03;13.10;99.90
1702;DHT22;848;48.354;10.064;2022-09-16T03:25:42;13.00;99.90
1702;DHT22;848;48.354;10.064;2022-09-16T03:28:12;13.00;99.90
1702;DHT22;848;48.354;10.064;2022-09-16T03:30:47;13.00;99.90
1702;DHT22;848;48.354;10.064;2022-09-16T03:33:23;13.00;99.90
1702;DHT22;848;48.354;10.064;2022-09-16T03:35:55;13.00;99.90
1702;DHT22;848;48.354;10.064;2022-09-16T03:38:23;13.00;99.90
1702;DHT22;848;48.354;10.064;2022-09-16T03:40:51;13.10;99.90
1702;DHT22;848;48.354;10.064;2022-09-16T03:43:18;13.10;99.90
1702;DHT22;848;48.354;10.064;2022-09-16T03:45:45;13.10;99.90
1702;DHT22;848;48.354;10.064;2022-09-16T03:48:15;13.10;99.90
1702;DHT22;848;48.354;10.064;2022-09-16T03:50:42;13.20;99.90
1702;DHT22;848;48.354;10.064;2022-09-16T03:53:10;13.20;99.90
1702;DHT22;848;48.354;10.064;2022-09-16T03:55:37;13.20;99.90
1702;DHT22;848;48.354;10.064;2022-09-16T03:58:04;13.20;99.90
1702;DHT22;848;48.354;10.064;2022-09-16T04:00:31;13.20;99.90
1702;DHT22;848;48.354;10.064;2022-09-16T04:02:59;13.30;99.90
1702;DHT22;848;48.354;10.064;2022-09-16T04:05:26;13.30;99.90
1702;DHT22;848;48.354;10.064;2022-09-16T04:07:53;13.40;99.90
1702;DHT22;848;48.354;10.064;2022-09-16T04:10:22;13.40;99.90
1702;DHT22;848;48.354;10.064;2022-09-16T04:12:49;13.40;99.90
1702;DHT22;848;48.354;10.064;2022-09-16T04:15:15;13.40;99.90
1702;DHT22;848;48.354;10.064;2022-09-16T04:17:45;13.50;99.90
1702;DHT22;848;48.354;10.064;2022-09-16T04:20:11;13.50;99.90
1702;DHT22;848;48.354;10.064;2022-09-16T04:22:38;13.40;99.90
1702;DHT22;848;48.354;10.064;2022-09-16T04:25:06;13.40;99.90
1702;DHT22;848;48.354;10.064;2022-09-16T04:27:35;13.40;99.90
1702;DHT22;848;48.354;10.064;2022-09-16T04:30:03;13.40;99.90
1702;DHT22;848;48.354;10.064;2022-09-16T04:32:30;13.40;99.90
1702;DHT22;848;48.354;10.064;2022-09-16T04:34:57;13.30;99.90
1702;DHT22;848;48.354;10.064;2022-09-16T04:37:23;13.30;99.90
1702;DHT22;848;48.354;10.064;2022-09-16T04:39:50;13.40;99.90
1702;DHT22;848;48.354;10.064;2022-09-16T04:42:17;13.40;99.90
1702;DHT22;848;48.354;10.064;2022-09-16T04:44:46;13.40;99.90
1702;DHT22;848;48.354;10.064;2022-09-16T04:47:12;13.50;99.90
1702;DHT22;848;48.354;10.064;2022-09-16T04:49:39;13.50;99.90
1702;DHT22;848;48.354;10.064;2022-09-16T04:52:06;13.50;99.90
1702;DHT22;848;48.354;10.064;2022-09-16T04:54:33;13.50;99.90
1702;DHT22;848;48.354;10.064;2022-09-16T04:57:00;13.60;99.90
1702;DHT22;848;48.354;10.064;2022-09-16T04:59:27;13.60;99.90
1702;DHT22;848;48.354;10.064;2022-09-16T05:01:55;13.60;99.90
1702;DHT22;848;48.354;10.064;2022-09-16T05:04:22;13.60;99.90
1702;DHT22;848;48.354;10.064;2022-09-16T05:06:49;13.60;99.90
1702;DHT22;848;48.354;10.064;2022-09-16T05:09:16;13.70;99.90
1702;DHT22;848;48.354;10.064;2022-09-16T05:11:43;13.70;99.90
1702;DHT22;848;48.354;10.064;2022-09-16T05:14:12;13.70;99.90
1702;DHT22;848;48.354;10.064;2022-09-16T05:16:40;13.70;99.90
1702;DHT22;848;48.354;10.064;2022-09-16T05:19:09;13.70;99.90
1702;DHT22;848;48.354;10.064;2022-09-16T05:21:39;13.70;99.90
1702;DHT22;848;48.354;10.064;2022-09-16T05:24:07;13.80;99.90
1702;DHT22;848;48.354;10.064;2022-09-16T05:26:36;13.80;99.90
1702;DHT22;848;48.354;10.064;2022-09-16T05:29:05;13.80;99.90
1702;DHT22;848;48.354;10.064;2022-09-16T05:31:34;13.70;99.90
1702;DHT22;848;48.354;10.064;2022-09-16T05:34:03;13.60;99.90
1702;DHT22;848;48.354;10.064;2022-09-16T05:36:33;13.60;99.90
1702;DHT22;848;48.354;10.064;2022-09-16T05:39:02;13.70;99.90
1702;DHT22;848;48.354;10.064;2022-09-16T05:41:29;13.80;99.90
1702;DHT22;848;48.354;10.064;2022-09-16T05:43:57;13.90;99.90
1702;DHT22;848;48.354;10.064;2022-09-16T05:46:25;13.90;99.90
1702;DHT22;848;48.354;10.064;2022-09-16T05:48:52;14.00;99.90
1702;DHT22;848;48.354;10.064;2022-09-16T05:51:21;14.00;99.90
1702;DHT22;848;48.354;10.064;2022-09-16T05:53:50;14.00;99.90
1702;DHT22;848;48.354;10.064;2022-09-16T05:56:19;14.00;99.90
1702;DHT22;848;48.354;10.064;2022-09-16T05:58:46;14.10;99.90
1702;DHT22;848;48.354;10.064;2022-09-16T06:01:15;14.10;99.90
1702;DHT22;848;48.354;10.064;2022-09-16T06:03:44;14.10;99.90
1702;DHT22;848;48.354;10.064;2022-09-16T06:06:13;14.10;99.90
1702;DHT22;848;48.354;10.064;2022-09-16T06:08:40;14.20;99.90
1702;DHT22;848;48.354;10.064;2022-09-16T06:11:10;14.20;99.90
1702;DHT22;848;48.354;10.064;2022-09-16T06:13:37;14.20;99.90
1702;DHT22;848;48.354;10.064;2022-09-16T06:16:06;14.30;99.90
1702;DHT22;848;48.354;10.064;2022-09-16T06:18:33;14.30;99.90
1702;DHT22;848;48.354;10.064;2022-09-16T06:21:04;14.40;99.90
1702;DHT22;848;48.354;10.064;2022-09-16T06:23:32;14.40;99.90
1702;DHT22;848;48.354;10.064;2022-09-16T06:26:00;14.40;99.90
1702;DHT22;848;48.354;10.064;2022-09-16T06:28:29;14.40;99.90
1702;DHT22;848;48.354;10.064;2022-09-16T06:31:04;14.40;99.90
1702;DHT22;848;48.354;10.064;2022-09-16T06:33:32;14.40;99.90
1702;DHT22;848;48.354;10.064;2022-09-16T06:36:02;14.50;99.90
1702;DHT22;848;48.354;10.064;2022-09-16T06:38:29;14.70;99.90
1702;DHT22;848;48.354;10.064;2022-09-16T06:40:58;14.80;99.90
1702;DHT22;848;48.354;10.064;2022-09-16T06:43:25;15.00;99.90
1702;DHT22;848;48.354;10.064;2022-09-16T06:45:57;15.10;99.90
1702;DHT22;848;48.354;10.064;2022-09-16T06:48:24;15.10;99.90
1702;DHT22;848;48.354;10.064;2022-09-16T06:50:57;14.80;99.90
1702;DHT22;848;48.354;10.064;2022-09-16T06:53:25;14.70;99.90
1702;DHT22;848;48.354;10.064;2022-09-16T06:55:59;14.60;99.90
1702;DHT22;848;48.354;10.064;2022-09-16T06:58:26;14.70;99.90
1702;DHT22;848;48.354;10.064;2022-09-16T07:00:56;14.70;99.90
1702;DHT22;848;48.354;10.064;2022-09-16T07:03:23;14.70;99.90
1702;DHT22;848;48.354;10.064;2022-09-16T07:05:56;14.60;99.90
1702;DHT22;848;48.354;10.064;2022-09-16T07:08:24;14.50;99.90
1702;DHT22;848;48.354;10.064;2022-09-16T07:10:57;14.30;99.90
1702;DHT22;848;48.354;10.064;2022-09-16T07:13:24;14.30;99.90
1702;DHT22;848;48.354;10.064;2022-09-16T07:15:51;14.30;99.90
1702;DHT22;848;48.354;10.064;2022-09-16T07:18:19;14.40;99.90
1702;DHT22;848;48.354;10.064;2022-09-16T07:20:46;14.50;99.90
1702;DHT22;848;48.354;10.064;2022-09-16T07:23:13;14.50;99.90
1702;DHT22;848;48.354;10.064;2022-09-16T07:25:40;14.50;99.90
1702;DHT22;848;48.354;10.064;2022-09-16T07:28:07;14.50;99.90
1702;DHT22;848;48.354;10.064;2022-09-16T07:30:34;14.60;99.90
1702;DHT22;848;48.354;10.064;2022-09-16T07:33:01;14.70;99.90
1702;DHT22;848;48.354;10.064;2022-09-16T07:35:29;14.70;99.90
1702;DHT22;848;48.354;10.064;2022-09-16T07:37:56;14.90;99.90
1702;DHT22;848;48.354;10.064;2022-09-16T07:40:23;15.00;99.90
1702;DHT22;848;48.354;10.064;2022-09-16T07:42:50;15.00;99.90
1702;DHT22;848;48.354;10.064;2022-09-16T07:45:17;15.10;99.90
1702;DHT22;848;48.354;10.064;2022-09-16T07:47:47;15.20;99.90
1702;DHT22;848;48.354;10.064;2022-09-16T07:50:15;15.20;99.90
1702;DHT22;848;48.354;10.064;2022-09-16T07:52:43;15.20;99.90
1702;DHT22;848;48.354;10.064;2022-09-16T07:55:10;15.20;99.90
1702;DHT22;848;48.354;10.064;2022-09-16T07:57:37;15.20;99.90
1702;DHT22;848;48.354;10.064;2022-09-16T08:00:05;15.10;99.90
1702;DHT22;848;48.354;10.064;2022-09-16T08:02:32;15.10;99.90
1702;DHT22;848;48.354;10.064;2022-09-16T08:04:59;15.10;99.90
1702;DHT22;848;48.354;10.064;2022-09-16T08:07:26;15.10;99.90
1702;DHT22;848;48.354;10.064;2022-09-16T08:09:54;15.10;99.90
1702;DHT22;848;48.354;10.064;2022-09-16T08:12:21;14.90;99.90
1702;DHT22;848;48.354;10.064;2022-09-16T08:14:48;14.80;99.90
1702;DHT22;848;48.354;10.064;2022-09-16T08:17:15;14.70;99.90
1702;DHT22;848;48.354;10.064;2022-09-16T08:19:41;14.70;99.90
1702;DHT22;848;48.354;10.064;2022-09-16T08:22:08;14.80;99.90
1702;DHT22;848;48.354;10.064;2022-09-16T08:24:35;14.80;99.90
1702;DHT22;848;48.354;10.064;2022-09-16T08:27:04;14.80;99.90
1702;DHT22;848;48.354;10.064;2022-09-16T08:29:30;14.80;99.90
1702;DHT22;848;48.354;10.064;2022-09-16T08:31:57;14.80;99.90
1702;DHT22;848;48.354;10.064;2022-09-16T08:34:25;14.80;99.90
1702;DHT22;848;48.354;10.064;2022-09-16T08:36:52;14.70;99.90
1702;DHT22;848;48.354;10.064;2022-09-16T08:39:19;14.60;99.90
1702;DHT22;848;48.354;10.064;2022-09-16T08:42:06;14.50;99.90
1702;DHT22;848;48.354;10.064;2022-09-16T08:44:41;14.40;99.90
1702;DHT22;848;48.354;10.064;2022-09-16T08:47:20;14.30;99.90
1702;DHT22;848;48.354;10.064;2022-09-16T08:49:49;14.10;99.90
1702;DHT22;848;48.354;10.064;2022-09-16T08:52:24;13.90;99.90
1702;DHT22;848;48.354;10.064;2022-09-16T08:54:57;13.60;99.90
1702;DHT22;848;48.354;10.064;2022-09-16T08:57:28;13.30;99.90
1702;DHT22;848;48.354;10.064;2022-09-16T08:59:58;13.30;99.90
1702;DHT22;848;48.354;10.064;2022-09-16T09:02:36;13.40;99.90
1702;DHT22;848;48.354;10.064;2022-09-16T09:05:14;13.30;99.90
1702;DHT22;848;48.354;10.064;2022-09-16T09:07:51;13.40;99.90
1702;DHT22;848;48.354;10.064;2022-09-16T09:10:23;13.20;99.90
1702;DHT22;848;48.354;10.064;2022-09-16T09:13:00;13.00;99.90
1702;DHT22;848;48.354;10.064;2022-09-16T09:15:36;12.90;99.90
1702;DHT22;848;48.354;10.064;2022-09-16T09:18:22;12.90;99.90
1702;DHT22;848;48.354;10.064;2022-09-16T09:21:05;12.90;99.90
1702;DHT22;848;48.354;10.064;2022-09-16T09:23:46;12.80;99.90
1702;DHT22;848;48.354;10.064;2022-09-16T09:26:19;12.90;99.90
1702;DHT22;848;48.354;10.064;2022-09-16T09:31:58;12.90;99.90
1702;DHT22;848;48.354;10.064;2022-09-16T09:34:36;12.90;99.90
1702;DHT22;848;48.354;10.064;2022-09-16T09:37:18;12.90;99.90
1702;DHT22;848;48.354;10.064;2022-09-16T09:39:59;13.00;99.90
1702;DHT22;848;48.354;10.064;2022-09-16T09:42:30;13.10;99.90
1702;DHT22;848;48.354;10.064;2022-09-16T09:45:03;13.10;99.90
1702;DHT22;848;48.354;10.064;2022-09-16T09:47:34;13.20;99.90
1702;DHT22;848;48.354;10.064;2022-09-16T09:50:12;13.10;99.90
1702;DHT22;848;48.354;10.064;2022-09-16T09:52:44;13.00;99.90
1702;DHT22;848;48.354;10.064;2022-09-16T09:55:15;12.90;99.90
1702;DHT22;848;48.354;10.064;2022-09-16T09:58:01;12.70;99.90
1702;DHT22;848;48.354;10.064;2022-09-16T10:00:31;12.70;99.90
1702;DHT22;848;48.354;10.064;2022-09-16T10:03:04;12.70;99.90
1702;DHT22;848;48.354;10.064;2022-09-16T10:05:32;12.70;99.90
1702;DHT22;848;48.354;10.064;2022-09-16T10:08:04;12.70;99.90
1702;DHT22;848;48.354;10.064;2022-09-16T10:10:33;12.80;99.90
1702;DHT22;848;48.354;10.064;2022-09-16T10:13:07;12.90;99.90
1702;DHT22;848;48.354;10.064;2022-09-16T10:15:39;12.90;99.90
1702;DHT22;848;48.354;10.064;2022-09-16T10:18:11;12.90;99.90
1702;DHT22;848;48.354;10.064;2022-09-16T10:20:41;12.90;99.90
1702;DHT22;848;48.354;10.064;2022-09-16T10:23:10;12.80;99.90
1702;DHT22;848;48.354;10.064;2022-09-16T10:25:39;12.90;99.90
1702;DHT22;848;48.354;10.064;2022-09-16T10:28:18;13.10;99.90
1702;DHT22;848;48.354;10.064;2022-09-16T10:30:51;13.40;99.90
1702;DHT22;848;48.354;10.064;2022-09-16T10:33:22;13.40;99.90
1702;DHT22;848;48.354;10.064;2022-09-16T10:35:52;13.30;99.90
1702;DHT22;848;48.354;10.064;2022-09-16T10:38:23;13.20;99.90
1702;DHT22;848;48.354;10.064;2022-09-16T10:40:51;13.20;99.90
1702;DHT22;848;48.354;10.064;2022-09-16T10:43:18;13.20;99.90
1702;DHT22;848;48.354;10.064;2022-09-16T10:45:49;13.30;99.90
1702;DHT22;848;48.354;10.064;2022-09-16T10:48:18;13.50;99.90
1702;DHT22;848;48.354;10.064;2022-09-16T10:50:56;13.60;99.90
1702;DHT22;848;48.354;10.064;2022-09-16T10:53:28;13.70;99.90
1702;DHT22;848;48.354;10.064;2022-09-16T10:55:57;13.80;99.90
1702;DHT22;848;48.354;10.064;2022-09-16T10:58:26;14.00;99.90
1702;DHT22;848;48.354;10.064;2022-09-16T11:01:07;14.30;99.90
1702;DHT22;848;48.354;10.064;2022-09-16T11:04:03;14.10;99.90
1702;DHT22;848;48.354;10.064;2022-09-16T11:06:45;14.50;99.90
1702;DHT22;848;48.354;10.064;2022-09-16T11:09:23;14.50;99.90
1702;DHT22;848;48.354;10.064;2022-09-16T11:12:06;14.50;99.90
1702;DHT22;848;48.354;10.064;2022-09-16T11:14:46;14.30;99.90
1702;DHT22;848;48.354;10.064;2022-09-16T11:17:33;14.20;99.90
1702;DHT22;848;48.354;10.064;2022-09-16T11:23:10;14.40;99.90
1702;DHT22;848;48.354;10.064;2022-09-16T11:25:44;14.40;99.90
1702;DHT22;848;48.354;10.064;2022-09-16T11:28:47;14.40;99.90
1702;DHT22;848;48.354;10.064;2022-09-16T11:31:23;14.30;99.90
1702;DHT22;848;48.354;10.064;2022-09-16T11:34:02;14.20;99.90
1702;DHT22;848;48.354;10.064;2022-09-16T11:36:38;14.20;99.90
1702;DHT22;848;48.354;10.064;2022-09-16T11:39:32;14.30;99.90
1702;DHT22;848;48.354;10.064;2022-09-16T11:42:07;14.50;99.90
1702;DHT22;848;48.354;10.064;2022-09-16T11:44:43;14.40;99.90
1702;DHT22;848;48.354;10.064;2022-09-16T11:47:30;14.40;99.90
1702;DHT22;848;48.354;10.064;2022-09-16T11:50:12;14.30;99.90
1702;DHT22;848;48.354;10.064;2022-09-16T11:53:01;14.40;99.90
1702;DHT22;848;48.354;10.064;2022-09-16T11:55:38;14.50;99.90
1702;DHT22;848;48.354;10.064;2022-09-16T11:58:21;14.50;99.90
1702;DHT22;848;48.354;10.064;2022-09-16T12:00:51;14.60;99.90
1702;DHT22;848;48.354;10.064;2022-09-16T12:03:25;14.60;99.90
1702;DHT22;848;48.354;10.064;2022-09-16T12:05:58;14.60;99.90
1702;DHT22;848;48.354;10.064;2022-09-16T12:08:32;14.60;99.90
1702;DHT22;848;48.354;10.064;2022-09-16T12:11:03;14.70;99.90
1702;DHT22;848;48.354;10.064;2022-09-16T12:13:35;14.90;99.90
1702;DHT22;848;48.354;10.064;2022-09-16T12:16:05;15.10;99.90
1702;DHT22;848;48.354;10.064;2022-09-16T12:18:36;15.30;99.90
1702;DHT22;848;48.354;10.064;2022-09-16T12:21:09;15.30;99.90
1702;DHT22;848;48.354;10.064;2022-09-16T12:23:41;15.50;99.90
1702;DHT22;848;48.354;10.064;2022-09-16T12:26:13;15.70;99.90
1702;DHT22;848;48.354;10.064;2022-09-16T12:28:45;15.90;99.90
1702;DHT22;848;48.354;10.064;2022-09-16T12:31:20;16.00;99.90
1702;DHT22;848;48.354;10.064;2022-09-16T12:33:53;15.90;99.90
1702;DHT22;848;48.354;10.064;2022-09-16T12:36:26;15.60;99.90
1702;DHT22;848;48.354;10.064;2022-09-16T12:38:53;15.20;99.90
1702;DHT22;848;48.354;10.064;2022-09-16T12:41:37;15.10;99.90
1702;DHT22;848;48.354;10.064;2022-09-16T12:44:25;15.10;99.90
1702;DHT22;848;48.354;10.064;2022-09-16T12:47:08;15.10;99.90
1702;DHT22;848;48.354;10.064;2022-09-16T12:49:56;15.00;99.90
1702;DHT22;848;48.354;10.064;2022-09-16T12:55:40;15.00;99.90
1702;DHT22;848;48.354;10.064;2022-09-16T13:01:16;15.10;99.90
1702;DHT22;848;48.354;10.064;2022-09-16T13:03:46;15.20;99.90
1702;DHT22;848;48.354;10.064;2022-09-16T13:06:24;15.20;99.90
1702;DHT22;848;48.354;10.064;2022-09-16T13:08:54;15.30;99.90
1702;DHT22;848;48.354;10.064;2022-09-16T13:11:23;15.30;99.90
1702;DHT22;848;48.354;10.064;2022-09-16T13:13:53;15.30;99.90
1702;DHT22;848;48.354;10.064;2022-09-16T13:16:31;15.40;99.90
1702;DHT22;848;48.354;10.064;2022-09-16T13:19:25;15.30;99.90
1702;DHT22;848;48.354;10.064;2022-09-16T13:21:58;15.30;99.90
1702;DHT22;848;48.354;10.064;2022-09-16T13:24:35;15.40;99.90
1702;DHT22;848;48.354;10.064;2022-09-16T13:27:24;15.50;99.90
1702;DHT22;848;48.354;10.064;2022-09-16T13:29:52;15.50;99.90
1702;DHT22;848;48.354;10.064;2022-09-16T13:32:38;15.30;99.90
1702;DHT22;848;48.354;10.064;2022-09-16T13:35:21;15.20;99.90
1702;DHT22;848;48.354;10.064;2022-09-16T13:37:50;15.10;99.90
1702;DHT22;848;48.354;10.064;2022-09-16T13:40:22;15.10;99.90
1702;DHT22;848;48.354;10.064;2022-09-16T13:42:50;15.20;99.90
1702;DHT22;848;48.354;10.064;2022-09-16T13:45:31;15.10;99.90
1702;DHT22;848;48.354;10.064;2022-09-16T13:48:01;15.10;99.90
1702;DHT22;848;48.354;10.064;2022-09-16T13:50:31;15.00;99.90
1702;DHT22;848;48.354;10.064;2022-09-16T13:53:08;15.00;99.90
1702;DHT22;848;48.354;10.064;2022-09-16T13:55:39;15.00;99.90
1702;DHT22;848;48.354;10.064;2022-09-16T13:58:13;15.00;99.90
1702;DHT22;848;48.354;10.064;2022-09-16T14:00:49;15.10;99.90
1702;DHT22;848;48.354;10.064;2022-09-16T14:06:45;15.30;99.90
1702;DHT22;848;48.354;10.064;2022-09-16T14:09:26;15.30;99.90
1702;DHT22;848;48.354;10.064;2022-09-16T14:12:01;15.30;99.90
1702;DHT22;848;48.354;10.064;2022-09-16T14:14:34;15.30;99.90
1702;DHT22;848;48.354;10.064;2022-09-16T14:17:03;15.20;99.90
1702;DHT22;848;48.354;10.064;2022-09-16T14:19:34;15.20;99.90
1702;DHT22;848;48.354;10.064;2022-09-16T14:22:04;15.10;99.90
1702;DHT22;848;48.354;10.064;2022-09-16T14:24:36;15.10;99.90
1702;DHT22;848;48.354;10.064;2022-09-16T14:27:16;15.00;99.90
1702;DHT22;848;48.354;10.064;2022-09-16T14:29:53;15.10;99.90
1702;DHT22;848;48.354;10.064;2022-09-16T14:32:23;15.20;99.90
1702;DHT22;848;48.354;10.064;2022-09-16T14:34:51;15.20;99.90
1702;DHT22;848;48.354;10.064;2022-09-16T14:37:19;15.30;99.90
1702;DHT22;848;48.354;10.064;2022-09-16T14:39:46;15.50;99.90
1702;DHT22;848;48.354;10.064;2022-09-16T14:42:18;15.60;99.90
1702;DHT22;848;48.354;10.064;2022-09-16T14:44:47;15.70;99.90
1702;DHT22;848;48.354;10.064;2022-09-16T14:47:17;15.60;99.90
1702;DHT22;848;48.354;10.064;2022-09-16T14:49:49;15.60;99.90
1702;DHT22;848;48.354;10.064;2022-09-16T14:52:19;15.70;99.90
1702;DHT22;848;48.354;10.064;2022-09-16T14:54:46;15.50;99.90
1702;DHT22;848;48.354;10.064;2022-09-16T14:57:18;15.50;99.90
1702;DHT22;848;48.354;10.064;2022-09-16T14:59:47;15.50;99.90
1702;DHT22;848;48.354;10.064;2022-09-16T15:02:19;15.30;99.90
1702;DHT22;848;48.354;10.064;2022-09-16T15:04:51;15.20;99.90
1702;DHT22;848;48.354;10.064;2022-09-16T15:07:21;15.20;99.90
1702;DHT22;848;48.354;10.064;2022-09-16T15:09:52;15.30;99.90
1702;DHT22;848;48.354;10.064;2022-09-16T15:12:27;15.40;99.90
1702;DHT22;848;48.354;10.064;2022-09-16T15:14:55;15.40;99.90
1702;DHT22;848;48.354;10.064;2022-09-16T15:17:25;15.50;99.90
1702;DHT22;848;48.354;10.064;2022-09-16T15:19:55;15.60;99.90
1702;DHT22;848;48.354;10.064;2022-09-16T15:22:23;15.60;99.90
1702;DHT22;848;48.354;10.064;2022-09-16T15:24:52;15.60;99.90
1702;DHT22;848;48.354;10.064;2022-09-16T15:27:26;15.60;99.90
1702;DHT22;848;48.354;10.064;2022-09-16T15:29:56;15.60;99.90
1702;DHT22;848;48.354;10.064;2022-09-16T15:32:26;15.60;99.90
1702;DHT22;848;48.354;10.064;2022-09-16T15:35:14;15.60;99.90
1702;DHT22;848;48.354;10.064;2022-09-16T15:37:46;15.60;99.90
1702;DHT22;848;48.354;10.064;2022-09-16T15:40:29;15.60;99.90
1702;DHT22;848;48.354;10.064;2022-09-16T15:43:11;15.60;99.90
1702;DHT22;848;48.354;10.064;2022-09-16T15:45:38;15.60;99.90
1702;DHT22;848;48.354;10.064;2022-09-16T15:48:11;15.60;99.90
1702;DHT22;848;48.354;10.064;2022-09-16T15:50:43;15.50;99.90
1702;DHT22;848;48.354;10.064;2022-09-16T15:53:13;15.50;99.90
1702;DHT22;848;48.354;10.064;2022-09-16T15:55:56;15.40;99.90
1702;DHT22;848;48.354;10.064;2022-09-16T15:58:40;15.50;99.90
1702;DHT22;848;48.354;10.064;2022-09-16T16:01:11;15.40;99.90
1702;DHT22;848;48.354;10.064;2022-09-16T16:03:50;15.40;99.90
1702;DHT22;848;48.354;10.064;2022-09-16T16:06:19;15.40;99.90
1702;DHT22;848;48.354;10.064;2022-09-16T16:08:47;15.40;99.90
1702;DHT22;848;48.354;10.064;2022-09-16T16:11:16;15.40;99.90
1702;DHT22;848;48.354;10.064;2022-09-16T16:13:45;15.30;99.90
1702;DHT22;848;48.354;10.064;2022-09-16T16:16:15;15.30;99.90
1702;DHT22;848;48.354;10.064;2022-09-16T16:18:44;15.30;99.90
1702;DHT22;848;48.354;10.064;2022-09-16T16:21:13;15.30;99.90
1702;DHT22;848;48.354;10.064;2022-09-16T16:23:41;15.30;99.90
1702;DHT22;848;48.354;10.064;2022-09-16T16:26:09;15.20;99.90
1702;DHT22;848;48.354;10.064;2022-09-16T16:28:36;15.20;99.90
1702;DHT22;848;48.354;10.064;2022-09-16T16:31:09;15.20;99.90
1702;DHT22;848;48.354;10.064;2022-09-16T16:33:37;15.20;99.90
1702;DHT22;848;48.354;10.064;2022-09-16T16:36:04;15.20;99.90
1702;DHT22;848;48.354;10.064;2022-09-16T16:38:31;15.20;99.90
1702;DHT22;848;48.354;10.064;2022-09-16T16:40:58;15.20;99.90
1702;DHT22;848;48.354;10.064;2022-09-16T16:43:25;15.20;99.90
1702;DHT22;848;48.354;10.064;2022-09-16T16:45:55;15.20;99.90
1702;DHT22;848;48.354;10.064;2022-09-16T16:48:25;15.20;99.90
1702;DHT22;848;48.354;10.064;2022-09-16T16:50:57;15.10;99.90